Aérodrome :
LOGIN :

S'inscrire | Disclaimer

   EN    FR    IT 

 










Légende :    VFR   VFR Marginal   IFR   IFR Intensif   IFR Très Intensif
Visi : 
Plafond : 
>= 8 km
>= 3000ft
5 à 8 km
1000 à 3000 ft
1500m à 5 km
500 à 1000 ft
800 à 1500m
200 à 500 ft
< 800m
< 200 ft
Symboles :   Orages  Brouillard  Fortes neiges  Fortes précipitations  Vent > 20 kt
SIGMETs :   Divers  Orages  Givrage  Turbulence  Onde Orograph.  Cendres Volcan.






- Altitude de l'aérodrome : 184 ft
- Code IATA : BRU


EBBR - Bruxelles

DERNIER METAR :
  • 161120Z 22009KT 9999 -SHRA FEW034TCU 17/15 Q1012 NOSIG

METARs EXPIRÉS :
  • 161050Z 24009KT 220V280 9999 -SHRA FEW025TCU BKN032 17/14 Q1011 TEMPO 23015G25KT 4000 SHRA
  • 161020Z 22011KT 190V260 9999 -SHRA SCT029TCU BKN034 18/12 Q1011 TEMPO 23015G25KT 4000 SHRA
  • 160950Z 22011KT 9999 FEW029TCU SCT040 19/12 Q1011 NOSIG
  • 160920Z 21010KT 9999 SCT028 19/14 Q1011 NOSIG
  • 160850Z 22010KT 200V270 9999 BKN026 18/13 Q1011 NOSIG
  • 160820Z 21013KT 9999 BKN026 19/13 Q1011 NOSIG
  • 160750Z 22011KT 190V250 9999 BKN021 18/13 Q1011 NOSIG
  • 160720Z 22010KT 190V250 9999 BKN018 18/14 Q1011 NOSIG
  • 160650Z 21013KT 9999 BKN017 18/14 Q1011 NOSIG

TAF TAF EBBR
Valide du 16 à 12h jusqu'au 17 à 18h UTC


161110Z 1612/1718 23012KT 9999 FEW025TCU
PROB40
TEMPO 1612/1618 23015G25KT 4000 SHRA SCT012 SCT025CB
PROB40
TEMPO 1619/1622 BKN014
PROB30
TEMPO 1701/1706 BKN009



MET'MAP, la Météo Aéronautique d'un coup d'oeil ! - Copyright ORBIFLY Décembre 2007 - Disclaimer

ORBIFLY MET'MAP TEAM :

Programmation & Développement : Alexandra Zaïnal
Sur une idée originale de : Baudouin d'Aumeries
Soutien technique & logistique : Manuel Goepfert
Assistance : Marc-Olivier Méhu




SOURCES & CREDITS :

   NOAA